createdAt,value
2023-03-29T00:00:42.873Z,11.60
2023-03-29T00:03:10.062Z,11.60
2023-03-29T00:05:38.856Z,11.50
2023-03-29T00:08:05.941Z,11.40
2023-03-29T00:10:33.922Z,11.50
2023-03-29T00:13:04.303Z,11.50
2023-03-29T00:15:31.424Z,11.30
2023-03-29T00:17:58.673Z,11.40
2023-03-29T00:20:25.905Z,11.40
2023-03-29T00:22:53.050Z,11.40
2023-03-29T00:25:20.519Z,11.30
2023-03-29T00:27:47.630Z,11.30
2023-03-29T00:30:15.266Z,11.30
2023-03-29T00:32:42.851Z,11.30
2023-03-29T00:35:10.998Z,11.30
2023-03-29T00:37:38.101Z,11.30
2023-03-29T00:40:10.773Z,11.30
2023-03-29T00:42:38.318Z,11.20
2023-03-29T00:45:11.748Z,11.10
2023-03-29T00:47:38.885Z,11.20
2023-03-29T00:50:08.946Z,11.20
2023-03-29T00:52:36.152Z,11.10
2023-03-29T00:55:05.940Z,11.10
2023-03-29T00:57:33.998Z,11.10
2023-03-29T01:00:04.900Z,11.10
2023-03-29T01:02:34.627Z,11.20
2023-03-29T01:05:05.666Z,11.20
2023-03-29T01:07:35.306Z,11.10
2023-03-29T01:10:09.243Z,11.30
2023-03-29T01:12:39.164Z,11.20
2023-03-29T01:15:10.645Z,11.30
2023-03-29T01:17:38.952Z,11.40
2023-03-29T01:20:20.183Z,11.30
2023-03-29T01:23:00.773Z,11.30
2023-03-29T01:25:47.402Z,11.50
2023-03-29T01:28:26.594Z,11.60
2023-03-29T01:31:02.269Z,11.50
2023-03-29T01:36:23.336Z,11.50
2023-03-29T01:39:00.775Z,11.60
2023-03-29T01:41:34.132Z,11.50
2023-03-29T01:44:11.768Z,11.70
2023-03-29T01:46:46.683Z,11.40
2023-03-29T01:49:13.854Z,11.40
2023-03-29T01:51:43.736Z,11.40
2023-03-29T01:54:11.864Z,11.40
2023-03-29T01:56:40.370Z,11.30
2023-03-29T01:59:11.300Z,11.40
2023-03-29T02:01:40.742Z,11.40
2023-03-29T02:04:10.531Z,11.20
2023-03-29T02:06:37.817Z,11.40
2023-03-29T02:09:07.060Z,11.30
2023-03-29T02:11:35.908Z,11.40
2023-03-29T02:14:03.482Z,11.20
2023-03-29T02:16:34.715Z,11.10
2023-03-29T02:19:05.276Z,11.20
2023-03-29T02:21:51.795Z,11.10
2023-03-29T02:24:20.454Z,11.00
2023-03-29T02:26:48.456Z,11.00
2023-03-29T02:29:15.854Z,11.00
2023-03-29T02:31:46.313Z,10.90
2023-03-29T02:34:26.835Z,10.80
2023-03-29T02:36:56.651Z,11.00
2023-03-29T02:39:25.407Z,10.90
2023-03-29T02:41:53.639Z,11.00
2023-03-29T02:44:22.413Z,10.90
2023-03-29T02:46:50.904Z,10.80
2023-03-29T02:49:18.480Z,10.80
2023-03-29T02:51:47.318Z,10.90
2023-03-29T02:54:19.492Z,10.90
2023-03-29T02:56:49.277Z,10.90
2023-03-29T02:59:17.640Z,10.90
2023-03-29T03:01:45.087Z,10.80
2023-03-29T03:04:13.329Z,10.80
2023-03-29T03:06:41.041Z,10.60
2023-03-29T03:09:10.454Z,10.70
2023-03-29T03:11:40.425Z,10.70
2023-03-29T03:14:07.617Z,10.80
2023-03-29T03:16:36.231Z,10.70
2023-03-29T03:19:03.860Z,10.80
2023-03-29T03:21:31.018Z,10.70
2023-03-29T03:23:59.834Z,10.60
2023-03-29T03:26:29.927Z,10.60
2023-03-29T03:28:57.434Z,10.50
2023-03-29T03:31:43.075Z,10.50
2023-03-29T03:34:13.851Z,10.40
2023-03-29T03:36:48.240Z,10.40
2023-03-29T03:39:15.357Z,10.40
2023-03-29T03:41:43.179Z,10.40
2023-03-29T03:44:10.295Z,10.40
2023-03-29T03:46:37.412Z,10.40
2023-03-29T03:49:05.767Z,10.40
2023-03-29T03:51:37.745Z,10.40
2023-03-29T03:54:05.558Z,10.40
2023-03-29T03:56:35.167Z,10.40
2023-03-29T03:59:12.439Z,10.40
2023-03-29T04:01:55.635Z,10.40
2023-03-29T04:04:24.822Z,10.40
2023-03-29T04:07:02.951Z,10.60
2023-03-29T04:09:33.594Z,10.40
2023-03-29T04:12:19.519Z,10.40
2023-03-29T04:14:50.030Z,10.60
2023-03-29T04:17:21.248Z,10.60
2023-03-29T04:19:57.472Z,10.70
2023-03-29T04:22:26.568Z,10.70
2023-03-29T04:24:54.080Z,10.60
2023-03-29T04:27:47.392Z,10.60
2023-03-29T04:30:25.235Z,10.60
2023-03-29T04:33:10.473Z,10.50
2023-03-29T04:35:40.446Z,10.70
2023-03-29T04:38:12.133Z,10.50
2023-03-29T04:40:40.339Z,10.50
2023-03-29T04:43:23.683Z,10.50
2023-03-29T04:45:59.917Z,10.60
2023-03-29T04:48:52.154Z,10.50
2023-03-29T04:51:27.510Z,10.50
2023-03-29T04:53:54.960Z,10.60
2023-03-29T04:56:23.274Z,10.40
2023-03-29T04:59:13.322Z,10.50
2023-03-29T05:01:40.610Z,10.60
2023-03-29T05:04:07.789Z,10.70
2023-03-29T05:06:41.136Z,10.90
2023-03-29T05:09:08.960Z,11.00
2023-03-29T05:11:50.375Z,11.00
2023-03-29T05:14:20.671Z,11.00
2023-03-29T05:16:47.869Z,11.20
2023-03-29T05:19:15.325Z,11.30
2023-03-29T05:21:46.955Z,11.20
2023-03-29T05:24:17.831Z,11.20
2023-03-29T05:26:54.002Z,11.30
2023-03-29T05:29:21.688Z,11.30
2023-03-29T05:31:54.647Z,11.10
2023-03-29T05:34:22.784Z,10.90
2023-03-29T05:36:53.990Z,11.20
2023-03-29T05:39:21.452Z,11.20
2023-03-29T05:41:48.869Z,11.10
2023-03-29T05:44:27.794Z,10.90
2023-03-29T05:47:01.990Z,10.80
2023-03-29T05:49:29.223Z,11.00
2023-03-29T05:52:08.478Z,10.80
2023-03-29T05:54:37.570Z,10.80
2023-03-29T05:57:06.204Z,10.80
2023-03-29T05:59:33.901Z,10.90
2023-03-29T06:02:03.587Z,11.00
2023-03-29T06:04:31.836Z,11.00
2023-03-29T06:07:34.154Z,11.30
2023-03-29T06:10:33.298Z,11.40
2023-03-29T06:13:14.915Z,11.20
2023-03-29T06:15:42.011Z,11.40
2023-03-29T06:18:10.307Z,11.50
2023-03-29T06:20:38.161Z,11.90
2023-03-29T06:23:11.372Z,12.10
2023-03-29T06:25:38.540Z,11.90
2023-03-29T06:28:07.402Z,12.20
2023-03-29T06:30:35.417Z,12.30
2023-03-29T06:33:02.886Z,12.20
2023-03-29T06:36:01.989Z,12.30
2023-03-29T06:38:31.069Z,12.10
2023-03-29T06:41:16.605Z,12.00
2023-03-29T06:44:13.135Z,12.70
2023-03-29T06:46:54.282Z,12.90
2023-03-29T06:49:21.782Z,12.60
2023-03-29T06:52:09.469Z,13.50
2023-03-29T06:54:36.781Z,13.70
2023-03-29T06:57:07.944Z,13.80
2023-03-29T06:59:35.803Z,14.30
2023-03-29T07:02:15.557Z,14.70
2023-03-29T07:04:55.212Z,15.10
2023-03-29T07:07:33.212Z,15.80
2023-03-29T07:10:19.775Z,16.30
2023-03-29T07:13:07.198Z,16.30
2023-03-29T07:15:34.918Z,15.70
2023-03-29T07:18:17.213Z,16.00
2023-03-29T07:20:44.695Z,16.20
2023-03-29T07:23:12.349Z,16.60
2023-03-29T07:25:39.504Z,16.40
2023-03-29T07:28:07.421Z,17.10
2023-03-29T07:30:34.529Z,16.90
2023-03-29T07:33:14.439Z,16.80
2023-03-29T07:35:57.240Z,17.00
2023-03-29T07:38:25.283Z,17.20
2023-03-29T07:41:06.707Z,17.80
2023-03-29T07:43:46.876Z,17.80
2023-03-29T07:46:17.149Z,18.40
2023-03-29T07:48:44.439Z,18.60
2023-03-29T07:51:14.462Z,18.60
2023-03-29T07:53:57.889Z,18.80
2023-03-29T07:56:42.619Z,19.30
2023-03-29T07:59:16.542Z,19.00
2023-03-29T08:01:46.241Z,20.10
2023-03-29T08:04:35.988Z,20.10
2023-03-29T08:07:21.286Z,19.80
2023-03-29T08:09:53.991Z,20.00
2023-03-29T08:12:28.076Z,19.80
2023-03-29T08:14:57.407Z,19.80
2023-03-29T08:17:29.360Z,20.90
2023-03-29T08:19:56.848Z,20.20
2023-03-29T08:22:24.825Z,20.40
2023-03-29T08:25:12.085Z,20.50
2023-03-29T08:27:44.758Z,20.30
2023-03-29T08:30:14.966Z,20.30
2023-03-29T08:32:42.790Z,20.90
2023-03-29T08:35:10.285Z,21.10
2023-03-29T08:37:49.823Z,20.60
2023-03-29T08:40:23.183Z,20.90
2023-03-29T08:43:22.200Z,20.30
2023-03-29T08:46:19.104Z,20.10
2023-03-29T08:49:02.033Z,22.00
2023-03-29T08:51:37.572Z,21.70
2023-03-29T08:54:20.511Z,21.50
2023-03-29T08:57:22.702Z,21.20
2023-03-29T08:59:55.222Z,21.80
2023-03-29T09:02:24.481Z,21.30
2023-03-29T09:05:08.840Z,21.20
2023-03-29T09:07:44.895Z,22.10
2023-03-29T09:10:14.421Z,22.70
2023-03-29T09:12:48.792Z,22.80
2023-03-29T09:15:19.718Z,22.50
2023-03-29T09:17:58.955Z,22.40
2023-03-29T09:20:36.708Z,22.10
2023-03-29T09:23:22.405Z,22.30
2023-03-29T09:26:14.835Z,21.70
2023-03-29T09:29:09.671Z,22.40
2023-03-29T09:31:41.715Z,22.20
2023-03-29T09:34:14.302Z,22.10
2023-03-29T09:36:55.938Z,21.70
2023-03-29T09:39:23.640Z,21.30
2023-03-29T09:41:59.729Z,20.50
2023-03-29T09:44:31.758Z,19.70
2023-03-29T09:47:11.649Z,19.40
2023-03-29T09:49:42.843Z,19.50
2023-03-29T09:52:12.972Z,19.30
2023-03-29T09:54:43.711Z,19.60
2023-03-29T09:57:29.522Z,19.00
2023-03-29T09:59:57.736Z,19.80
2023-03-29T10:02:30.710Z,19.90
2023-03-29T10:05:04.067Z,20.00
2023-03-29T10:07:39.888Z,20.00
2023-03-29T10:10:10.382Z,19.70
2023-03-29T10:12:37.521Z,20.10
2023-03-29T10:15:06.151Z,20.10
2023-03-29T10:17:39.501Z,20.60
2023-03-29T10:20:09.578Z,20.70
2023-03-29T10:22:40.072Z,20.40
2023-03-29T10:25:14.078Z,20.70
2023-03-29T10:27:43.254Z,21.20
2023-03-29T10:30:12.920Z,21.40
2023-03-29T10:32:40.393Z,21.80
2023-03-29T10:35:13.493Z,22.20
2023-03-29T10:37:42.159Z,22.90
2023-03-29T10:40:18.610Z,24.90
2023-03-29T10:42:50.217Z,24.90
2023-03-29T10:45:31.700Z,24.50
2023-03-29T10:47:59.188Z,24.60
2023-03-29T10:50:31.461Z,24.80
2023-03-29T10:52:58.580Z,24.20
2023-03-29T10:55:29.509Z,23.90
2023-03-29T10:58:07.524Z,23.70
2023-03-29T11:00:43.108Z,23.80
2023-03-29T11:03:15.605Z,22.70
2023-03-29T11:05:46.860Z,22.20
2023-03-29T11:08:32.726Z,22.00
2023-03-29T11:11:09.196Z,21.70
2023-03-29T11:13:51.399Z,21.70
2023-03-29T11:16:18.508Z,21.60
2023-03-29T11:19:03.817Z,22.00
2023-03-29T11:21:36.852Z,21.80
2023-03-29T11:24:22.610Z,21.90
2023-03-29T11:27:10.775Z,21.50
2023-03-29T11:29:58.692Z,21.60
2023-03-29T11:32:31.700Z,21.30
2023-03-29T11:35:20.338Z,20.80
2023-03-29T11:38:12.707Z,20.70
2023-03-29T11:40:58.522Z,20.60
2023-03-29T11:43:41.384Z,21.10
2023-03-29T11:46:17.799Z,21.50
2023-03-29T11:48:51.369Z,21.70
2023-03-29T11:51:32.429Z,21.60
2023-03-29T11:53:59.560Z,21.80
2023-03-29T11:56:31.043Z,21.60
2023-03-29T11:59:01.366Z,21.00
2023-03-29T12:01:33.460Z,21.40
2023-03-29T12:04:05.717Z,21.60
2023-03-29T12:06:37.835Z,21.70
2023-03-29T12:09:14.792Z,22.10
2023-03-29T12:11:50.961Z,21.90
2023-03-29T12:14:21.967Z,21.50
2023-03-29T12:16:51.976Z,21.50
2023-03-29T12:19:19.284Z,22.20
2023-03-29T12:21:47.329Z,21.90
2023-03-29T12:24:21.644Z,22.00
2023-03-29T12:26:54.889Z,22.40
2023-03-29T12:29:41.037Z,22.40
2023-03-29T12:32:27.480Z,22.30
2023-03-29T12:35:20.535Z,22.40
2023-03-29T12:38:23.915Z,22.20
2023-03-29T12:41:16.545Z,22.00
2023-03-29T12:44:03.591Z,22.30
2023-03-29T12:46:47.195Z,22.50
2023-03-29T12:49:25.629Z,22.20
2023-03-29T12:51:54.187Z,22.10
2023-03-29T12:54:22.634Z,21.80
2023-03-29T12:56:53.258Z,21.90
2023-03-29T12:59:39.325Z,22.00
2023-03-29T13:02:15.505Z,21.80
2023-03-29T13:04:42.655Z,21.70
2023-03-29T13:07:35.760Z,21.60
2023-03-29T13:10:08.215Z,21.20
2023-03-29T13:12:37.398Z,21.30
2023-03-29T13:15:21.396Z,21.50
2023-03-29T13:17:57.525Z,21.30
2023-03-29T13:20:37.497Z,21.60
2023-03-29T13:23:18.079Z,21.70
2023-03-29T13:25:45.559Z,21.80
2023-03-29T13:28:25.996Z,22.10
2023-03-29T13:30:57.776Z,22.30
2023-03-29T13:33:38.206Z,21.60
2023-03-29T13:36:11.616Z,21.90
2023-03-29T13:38:49.629Z,21.90
2023-03-29T13:41:43.723Z,22.00
2023-03-29T13:44:36.860Z,22.20
2023-03-29T13:47:27.214Z,22.10
2023-03-29T13:49:56.338Z,22.20
2023-03-29T13:52:32.175Z,22.10
2023-03-29T13:55:14.644Z,22.20
2023-03-29T13:58:00.476Z,22.10
2023-03-29T14:00:43.200Z,22.00
2023-03-29T14:03:14.920Z,22.00
2023-03-29T14:05:43.855Z,22.20
2023-03-29T14:08:16.811Z,22.10
2023-03-29T14:10:44.973Z,22.20
2023-03-29T14:13:12.779Z,22.10
2023-03-29T14:15:42.947Z,22.00
2023-03-29T14:18:10.870Z,22.10
2023-03-29T14:20:38.093Z,22.30
2023-03-29T14:23:12.786Z,22.20
2023-03-29T14:25:41.714Z,22.30
2023-03-29T14:28:25.923Z,22.10
2023-03-29T14:30:53.535Z,22.20
2023-03-29T14:33:29.936Z,21.90
2023-03-29T14:35:58.161Z,21.90
2023-03-29T14:38:26.257Z,22.00
2023-03-29T14:40:54.934Z,22.00
2023-03-29T14:43:22.514Z,21.90
2023-03-29T14:45:50.085Z,21.80
2023-03-29T14:48:17.890Z,21.70
2023-03-29T14:50:45.846Z,21.80
2023-03-29T14:53:20.758Z,21.90
2023-03-29T14:55:52.341Z,21.70
2023-03-29T14:58:23.559Z,21.50
2023-03-29T15:00:51.679Z,21.60
2023-03-29T15:03:22.516Z,21.60
2023-03-29T15:05:54.552Z,21.60
2023-03-29T15:08:29.645Z,21.20
2023-03-29T15:10:57.026Z,21.10
2023-03-29T15:13:24.711Z,21.00
2023-03-29T15:15:53.887Z,21.10
2023-03-29T15:18:24.052Z,21.10
2023-03-29T15:20:52.493Z,21.20
2023-03-29T15:23:21.803Z,21.00
2023-03-29T15:25:51.896Z,21.10
2023-03-29T15:28:29.560Z,21.10
2023-03-29T15:31:08.155Z,21.20
2023-03-29T15:33:37.403Z,21.10
2023-03-29T15:36:08.644Z,21.20
2023-03-29T15:38:44.117Z,21.10
2023-03-29T15:41:13.563Z,20.80
2023-03-29T15:43:41.476Z,20.70
2023-03-29T15:46:11.250Z,20.90
2023-03-29T15:48:40.075Z,21.00
2023-03-29T15:51:07.510Z,20.90
2023-03-29T15:53:35.445Z,20.70
2023-03-29T15:56:05.439Z,20.60
2023-03-29T15:58:33.555Z,20.40
2023-03-29T16:01:00.812Z,20.30
2023-03-29T16:03:28.119Z,20.30
2023-03-29T16:05:57.009Z,20.30
2023-03-29T16:08:25.081Z,20.20
2023-03-29T16:10:52.320Z,20.20
2023-03-29T16:13:20.129Z,20.10
2023-03-29T16:15:47.686Z,19.90
2023-03-29T16:18:14.752Z,20.00
2023-03-29T16:20:41.899Z,19.90
2023-03-29T16:23:12.053Z,20.00
2023-03-29T16:25:39.963Z,19.90
2023-03-29T16:28:08.462Z,19.70
2023-03-29T16:30:37.237Z,19.80
2023-03-29T16:33:08.151Z,19.80
2023-03-29T16:35:40.070Z,19.70
2023-03-29T16:38:07.650Z,19.50
2023-03-29T16:40:35.184Z,19.50
2023-03-29T16:43:02.748Z,19.40
2023-03-29T16:45:30.034Z,19.50
2023-03-29T16:47:57.252Z,19.50
2023-03-29T16:50:25.718Z,19.40
2023-03-29T16:52:53.095Z,19.30
2023-03-29T16:55:20.258Z,19.10
2023-03-29T16:57:48.507Z,19.00
2023-03-29T17:00:17.032Z,19.00
2023-03-29T17:02:44.705Z,19.00
2023-03-29T17:05:14.462Z,19.00
2023-03-29T17:07:42.295Z,19.00
2023-03-29T17:10:10.745Z,18.70
2023-03-29T17:12:41.257Z,18.60
2023-03-29T17:15:09.279Z,18.80
2023-03-29T17:17:37.624Z,18.70
2023-03-29T17:20:08.432Z,18.70
2023-03-29T17:22:36.030Z,18.70
2023-03-29T17:25:07.137Z,18.50
2023-03-29T17:27:34.862Z,18.50
2023-03-29T17:30:02.145Z,18.50
2023-03-29T17:32:32.357Z,18.30
2023-03-29T17:34:59.581Z,18.10
2023-03-29T17:37:27.828Z,18.20
2023-03-29T17:39:54.980Z,18.20
2023-03-29T17:42:22.114Z,18.10
2023-03-29T17:44:54.897Z,18.10
2023-03-29T17:47:22.069Z,18.00
2023-03-29T17:49:49.131Z,17.90
2023-03-29T17:52:16.227Z,17.70
2023-03-29T17:54:43.332Z,17.60
2023-03-29T17:57:10.821Z,17.70
2023-03-29T17:59:38.071Z,17.80
2023-03-29T18:02:06.981Z,17.60
2023-03-29T18:04:34.466Z,17.50
2023-03-29T18:07:01.671Z,17.50
2023-03-29T18:09:30.783Z,17.40
2023-03-29T18:11:58.122Z,17.30
2023-03-29T18:14:25.352Z,17.30
2023-03-29T18:16:52.765Z,17.30
2023-03-29T18:19:20.034Z,17.20
2023-03-29T18:21:47.105Z,17.20
2023-03-29T18:24:14.308Z,17.10
2023-03-29T18:26:41.411Z,17.10
2023-03-29T18:29:11.059Z,17.10
2023-03-29T18:31:38.311Z,17.10
2023-03-29T18:34:06.186Z,17.10
2023-03-29T18:36:33.395Z,16.90
2023-03-29T18:39:05.946Z,16.90
2023-03-29T18:41:34.357Z,16.90
2023-03-29T18:44:01.538Z,16.90
2023-03-29T18:46:31.238Z,16.80
2023-03-29T18:49:00.453Z,16.80
2023-03-29T18:51:28.279Z,16.80
2023-03-29T18:53:55.945Z,16.70
2023-03-29T18:56:23.296Z,16.60
2023-03-29T18:58:50.542Z,16.70
2023-03-29T19:01:17.753Z,16.70
2023-03-29T19:03:46.870Z,16.60
2023-03-29T19:06:15.279Z,16.80
2023-03-29T19:08:42.522Z,16.70
2023-03-29T19:11:11.365Z,16.60
2023-03-29T19:13:39.918Z,16.60
2023-03-29T19:16:07.542Z,16.70
2023-03-29T19:18:37.890Z,16.60
2023-03-29T19:21:05.044Z,16.70
2023-03-29T19:23:32.693Z,16.60
2023-03-29T19:26:04.012Z,16.50
2023-03-29T19:28:32.192Z,16.50
2023-03-29T19:31:00.746Z,16.40
2023-03-29T19:33:29.179Z,16.40
2023-03-29T19:35:57.491Z,16.40
2023-03-29T19:38:24.798Z,16.40
2023-03-29T19:40:51.998Z,16.30
2023-03-29T19:43:21.144Z,16.20
2023-03-29T19:45:50.359Z,16.20
2023-03-29T19:50:48.163Z,16.30
2023-03-29T19:53:16.830Z,16.00
2023-03-29T19:55:45.613Z,15.90
2023-03-29T19:58:14.676Z,16.00
2023-03-29T20:00:43.243Z,16.10
2023-03-29T20:03:18.225Z,16.00
2023-03-29T20:05:46.831Z,16.00
2023-03-29T20:08:15.479Z,15.90
2023-03-29T20:10:45.819Z,15.80
2023-03-29T20:13:13.617Z,15.70
2023-03-29T20:15:47.990Z,15.70
2023-03-29T20:18:18.788Z,15.70
2023-03-29T20:20:50.540Z,15.70
2023-03-29T20:23:17.967Z,15.70
2023-03-29T20:25:45.246Z,15.70
2023-03-29T20:28:12.800Z,15.60
2023-03-29T20:30:41.722Z,15.60
2023-03-29T20:33:08.989Z,15.70
2023-03-29T20:35:36.264Z,15.60
2023-03-29T20:38:03.469Z,15.60
2023-03-29T20:40:32.175Z,15.70
2023-03-29T20:42:59.313Z,15.60
2023-03-29T20:45:26.443Z,15.60
2023-03-29T20:47:57.850Z,15.50
2023-03-29T20:50:28.387Z,15.50
2023-03-29T20:52:56.230Z,15.50
2023-03-29T20:55:23.675Z,15.40
2023-03-29T20:57:53.949Z,15.40
2023-03-29T21:00:22.431Z,15.40
2023-03-29T21:02:49.747Z,15.40
2023-03-29T21:05:17.056Z,15.40
2023-03-29T21:07:44.850Z,15.40
2023-03-29T21:10:12.385Z,15.50
2023-03-29T21:12:40.061Z,15.40
2023-03-29T21:15:10.503Z,15.40
2023-03-29T21:17:37.984Z,15.40
2023-03-29T21:20:11.139Z,15.30
2023-03-29T21:22:39.236Z,15.20
2023-03-29T21:25:07.796Z,15.30
2023-03-29T21:27:35.429Z,15.30
2023-03-29T21:30:03.079Z,15.20
2023-03-29T21:32:31.391Z,15.20
2023-03-29T21:34:58.574Z,15.20
2023-03-29T21:37:25.828Z,15.30
2023-03-29T21:39:52.997Z,15.20
2023-03-29T21:42:20.344Z,15.30
2023-03-29T21:44:47.466Z,15.20
2023-03-29T21:47:14.643Z,15.10
2023-03-29T21:49:41.783Z,15.10
2023-03-29T21:52:08.823Z,15.10
2023-03-29T21:54:36.116Z,15.00
2023-03-29T21:57:03.294Z,15.10
2023-03-29T21:59:30.818Z,15.00
2023-03-29T22:01:57.977Z,15.00
2023-03-29T22:04:36.012Z,15.20
2023-03-29T22:07:04.886Z,15.00
2023-03-29T22:09:32.660Z,15.00
2023-03-29T22:12:01.385Z,15.00
2023-03-29T22:14:31.550Z,14.90
2023-03-29T22:16:58.656Z,14.90
2023-03-29T22:19:25.731Z,15.00
2023-03-29T22:21:52.782Z,15.10
2023-03-29T22:24:19.890Z,14.90
2023-03-29T22:26:50.394Z,14.90
2023-03-29T22:29:17.425Z,15.00
2023-03-29T22:31:44.531Z,15.00
2023-03-29T22:34:11.856Z,14.90
2023-03-29T22:36:38.960Z,14.80
2023-03-29T22:39:07.052Z,14.80
2023-03-29T22:41:34.154Z,14.90
2023-03-29T22:44:01.264Z,14.70
2023-03-29T22:46:28.466Z,14.80
2023-03-29T22:48:55.738Z,14.70
2023-03-29T22:51:23.091Z,14.70
2023-03-29T22:53:50.304Z,14.90
2023-03-29T22:56:17.643Z,14.80
2023-03-29T22:58:44.816Z,14.70
2023-03-29T23:01:12.180Z,14.70
2023-03-29T23:03:39.341Z,14.70
2023-03-29T23:06:09.419Z,14.70
2023-03-29T23:08:36.816Z,14.70
2023-03-29T23:11:04.520Z,14.70
2023-03-29T23:13:33.496Z,14.70
2023-03-29T23:16:04.871Z,14.60
2023-03-29T23:18:34.735Z,14.60
2023-03-29T23:21:02.455Z,14.50
2023-03-29T23:23:29.786Z,14.50
2023-03-29T23:25:57.197Z,14.40
2023-03-29T23:28:27.349Z,14.30
2023-03-29T23:30:58.445Z,14.30
2023-03-29T23:33:26.084Z,14.30
2023-03-29T23:35:53.864Z,14.20
2023-03-29T23:38:21.070Z,14.20
2023-03-29T23:40:55.180Z,14.10
2023-03-29T23:43:22.308Z,14.10
2023-03-29T23:45:55.530Z,14.20
2023-03-29T23:48:23.789Z,14.10
2023-03-29T23:50:50.967Z,14.10
2023-03-29T23:53:19.822Z,14.10
2023-03-29T23:55:48.321Z,14.00
2023-03-29T23:58:16.467Z,14.00
